Time;durP1;ratioP1;P1;durP2;ratioP2;P2;SDS_P1;SDS_P2;PMS_P1;PMS_P2;Temp;Humidity;BMP_temperature;BMP_pressure;BME280_temperature;BME280_humidity;BME280_pressure;Samples;Min_cycle;Max_cycle;Signal;HPM_P1;HPM_P2
2022/09/06 00:02:04;;;;;;;3.90;2.40;;;21.10;70.80;;;;;;5129690;27;20799;-71
2022/09/06 00:04:29;;;;;;;6.25;2.47;;;21.10;70.60;;;;;;5130589;27;20434;-71
2022/09/06 00:06:55;;;;;;;4.23;2.30;;;21.00;70.90;;;;;;5131256;27;20481;-71
2022/09/06 00:09:21;;;;;;;4.43;2.30;;;21.00;71.10;;;;;;5131251;27;20424;-72
2022/09/06 00:11:46;;;;;;;5.40;2.60;;;21.00;70.80;;;;;;5131488;27;21289;-71
2022/09/06 00:14:12;;;;;;;4.83;2.33;;;20.90;71.00;;;;;;5131986;27;20449;-71
2022/09/06 00:16:39;;;;;;;6.93;2.23;;;20.90;70.90;;;;;;5131445;27;20395;-71
2022/09/06 00:19:05;;;;;;;3.75;2.50;;;20.90;71.20;;;;;;5131162;27;20485;-71
2022/09/06 00:21:30;;;;;;;3.83;2.35;;;20.90;71.20;;;;;;5131361;27;20466;-71
2022/09/06 00:23:56;;;;;;;3.95;2.33;;;20.90;71.30;;;;;;5130019;27;20905;-73
2022/09/06 00:26:22;;;;;;;3.90;2.63;;;20.80;71.70;;;;;;5131146;27;20484;-72
2022/09/06 00:28:48;;;;;;;5.10;2.47;;;20.80;71.20;;;;;;5130909;27;20411;-72
2022/09/06 00:31:25;;;;;;;3.88;2.47;;;20.80;71.40;;;;;;5118397;27;20425;-71
2022/09/06 00:33:51;;;;;;;4.30;2.70;;;20.80;71.60;;;;;;5128451;27;20410;-71
2022/09/06 00:36:18;;;;;;;6.68;2.55;;;20.70;71.80;;;;;;5130673;27;20438;-71
2022/09/06 00:38:44;;;;;;;3.08;2.00;;;20.70;71.90;;;;;;5130597;27;20394;-72
2022/09/06 00:41:12;;;;;;;5.13;2.30;;;20.60;71.90;;;;;;5114141;27;20914;-71
2022/09/06 00:43:38;;;;;;;4.40;2.57;;;20.60;72.00;;;;;;5111125;27;20417;-71
2022/09/06 00:46:06;;;;;;;4.40;2.50;;;20.60;72.90;;;;;;5131468;27;20430;-71
2022/09/06 00:48:33;;;;;;;3.65;2.47;;;20.60;72.00;;;;;;5130644;27;20403;-71
2022/09/06 00:51:02;;;;;;;7.15;2.70;;;20.60;72.10;;;;;;5130411;27;20399;-71
2022/09/06 00:53:30;;;;;;;3.60;2.27;;;20.50;72.10;;;;;;5102874;27;20778;-71
2022/09/06 00:55:56;;;;;;;4.45;2.60;;;20.50;72.30;;;;;;5110604;27;20757;-71
2022/09/06 00:58:23;;;;;;;4.20;2.60;;;20.50;72.20;;;;;;5126149;27;20444;-71
2022/09/06 01:00:49;;;;;;;5.25;2.78;;;20.50;72.40;;;;;;5130901;27;20535;-71
2022/09/06 01:03:19;;;;;;;5.97;2.72;;;20.50;72.80;;;;;;5130281;27;20399;-72
2022/09/06 01:06:05;;;;;;;5.05;2.85;;;20.40;72.50;;;;;;5121404;27;20434;-71
2022/09/06 01:08:58;;;;;;;4.15;2.55;;;20.50;72.70;;;;;;5116129;27;20403;-72
2022/09/06 01:11:33;;;;;;;5.13;2.65;;;20.40;72.70;;;;;;5112659;27;20429;-72
2022/09/06 01:14:09;;;;;;;3.88;2.60;;;20.30;73.10;;;;;;5121036;27;20949;-71
2022/09/06 01:17:05;;;;;;;4.93;3.10;;;20.30;73.00;;;;;;5116585;27;20414;-71
2022/09/06 01:19:51;;;;;;;5.35;2.90;;;20.30;73.00;;;;;;5087664;27;20505;-72
2022/09/06 01:22:35;;;;;;;5.75;2.92;;;20.20;73.20;;;;;;5118659;27;20412;-71
2022/09/06 01:25:19;;;;;;;4.10;3.00;;;20.20;73.20;;;;;;5110632;27;20428;-72
2022/09/06 01:28:16;;;;;;;4.63;3.20;;;20.20;73.10;;;;;;5127933;27;20409;-71
2022/09/06 01:30:50;;;;;;;6.25;3.50;;;20.20;73.30;;;;;;5126796;27;20464;-72
2022/09/06 01:33:27;;;;;;;5.90;3.10;;;20.20;73.30;;;;;;5114435;27;20442;-71
2022/09/06 01:36:00;;;;;;;5.47;2.97;;;20.10;73.40;;;;;;5096508;28;20408;-71
2022/09/06 01:38:26;;;;;;;4.85;3.38;;;20.20;73.50;;;;;;5122030;27;20494;-72
2022/09/06 01:40:52;;;;;;;5.18;3.17;;;20.10;73.70;;;;;;5129864;27;20485;-72
2022/09/06 01:43:28;;;;;;;4.43;3.30;;;20.10;73.80;;;;;;5116075;27;20887;-71
2022/09/06 01:46:22;;;;;;;5.07;3.20;;;20.10;73.90;;;;;;5129937;27;20431;-72
2022/09/06 01:49:06;;;;;;;5.72;3.55;;;20.00;74.00;;;;;;5128804;27;20491;-71
2022/09/06 01:51:56;;;;;;;5.05;3.30;;;20.00;74.10;;;;;;5128282;27;20418;-71
2022/09/06 01:54:48;;;;;;;4.03;3.30;;;20.00;74.20;;;;;;5123272;27;20415;-72
2022/09/06 01:57:40;;;;;;;4.20;3.20;;;20.00;74.60;;;;;;5081672;27;20444;-72
2022/09/06 02:00:08;;;;;;;5.63;3.13;;;20.00;74.60;;;;;;5129570;27;20406;-72
2022/09/06 02:03:00;;;;;;;4.07;3.17;;;20.00;74.50;;;;;;5115896;27;20996;-72
2022/09/06 02:05:44;;;;;;;4.50;3.37;;;19.90;74.70;;;;;;5115835;27;20437;-72
2022/09/06 02:08:24;;;;;;;5.32;3.53;;;19.90;74.70;;;;;;5102664;27;20750;-71
2022/09/06 02:11:06;;;;;;;6.45;4.13;;;19.90;74.80;;;;;;5129218;27;20402;-72
2022/09/06 02:13:43;;;;;;;6.53;4.28;;;19.90;74.80;;;;;;5101567;28;20988;-72
2022/09/06 02:16:12;;;;;;;7.30;4.30;;;19.90;75.00;;;;;;5127524;27;20391;-71
2022/09/06 02:18:48;;;;;;;10.45;4.13;;;19.90;74.90;;;;;;5129048;27;20409;-73
2022/09/06 02:21:17;;;;;;;6.30;4.30;;;19.90;75.10;;;;;;5122146;27;20428;-72
2022/09/06 02:23:44;;;;;;;5.27;4.40;;;19.80;75.10;;;;;;5109503;27;20483;-72
2022/09/06 02:26:16;;;;;;;7.68;4.20;;;19.80;75.20;;;;;;5126214;27;20419;-71
2022/09/06 02:28:42;;;;;;;5.63;3.97;;;19.80;75.10;;;;;;5129335;27;20440;-71
2022/09/06 02:31:28;;;;;;;7.10;4.33;;;19.80;75.40;;;;;;5128856;27;20390;-71
2022/09/06 02:33:55;;;;;;;6.53;3.78;;;19.80;75.50;;;;;;5118625;27;20419;-71
2022/09/06 02:36:20;;;;;;;6.07;4.32;;;19.80;75.70;;;;;;5129262;27;20391;-71
2022/09/06 02:38:46;;;;;;;5.13;4.37;;;19.80;76.00;;;;;;5128662;27;20391;-71
2022/09/06 02:41:17;;;;;;;6.80;4.60;;;19.80;76.20;;;;;;5128674;27;20415;-72
2022/09/06 02:43:43;;;;;;;5.55;4.55;;;19.70;75.80;;;;;;5128541;27;20424;-71
2022/09/06 02:46:08;;;;;;;6.07;4.88;;;19.80;75.90;;;;;;5115316;27;21196;-71
2022/09/06 02:48:34;;;;;;;4.80;4.30;;;19.70;76.30;;;;;;5127799;27;20394;-71
2022/09/06 02:51:04;;;;;;;6.83;4.63;;;19.70;76.30;;;;;;5128395;27;20908;-72
2022/09/06 02:53:30;;;;;;;6.85;4.40;;;19.70;76.20;;;;;;5128674;27;20412;-71
2022/09/06 02:55:56;;;;;;;5.70;4.45;;;19.70;76.70;;;;;;5128306;27;20556;-71
2022/09/06 02:58:23;;;;;;;5.97;4.70;;;19.70;76.60;;;;;;5105079;28;20408;-71
2022/09/06 03:00:49;;;;;;;7.50;4.95;;;19.70;77.20;;;;;;5115977;27;20898;-71
2022/09/06 03:03:18;;;;;;;6.95;4.85;;;19.70;76.60;;;;;;5127119;27;20395;-71
2022/09/06 03:05:48;;;;;;;5.85;4.45;;;19.60;77.40;;;;;;5128784;27;20415;-71
2022/09/06 03:08:18;;;;;;;7.63;4.68;;;19.60;77.40;;;;;;5121543;28;20483;-72
2022/09/06 03:10:48;;;;;;;6.60;4.83;;;19.70;77.00;;;;;;5108132;27;20491;-71
2022/09/06 03:13:14;;;;;;;5.78;4.80;;;19.60;76.90;;;;;;5115728;28;20799;-71
2022/09/06 03:15:40;;;;;;;5.93;4.38;;;19.60;77.90;;;;;;5128675;28;20395;-71
2022/09/06 03:18:05;;;;;;;5.50;4.40;;;19.60;77.20;;;;;;5121591;28;20946;-71
2022/09/06 03:20:31;;;;;;;6.85;4.65;;;19.60;77.60;;;;;;5107569;28;20894;-71
2022/09/06 03:22:57;;;;;;;5.93;4.70;;;19.50;77.70;;;;;;5127565;28;20411;-71
2022/09/06 03:25:24;;;;;;;7.30;4.82;;;19.50;77.60;;;;;;5109734;28;20426;-71
2022/09/06 03:27:50;;;;;;;7.20;4.80;;;19.50;77.50;;;;;;5114676;28;20390;-71
2022/09/06 03:30:16;;;;;;;6.68;4.85;;;19.50;77.60;;;;;;5117191;28;20446;-71
2022/09/06 03:32:41;;;;;;;6.05;4.90;;;19.50;77.80;;;;;;5128477;28;20433;-71
2022/09/06 03:35:08;;;;;;;6.40;4.83;;;19.50;77.90;;;;;;5128372;27;20463;-71
2022/09/06 03:37:34;;;;;;;6.75;5.05;;;19.40;78.30;;;;;;5128115;28;20779;-71
2022/09/06 03:39:59;;;;;;;6.32;5.50;;;19.40;78.30;;;;;;5128366;28;20398;-71
2022/09/06 03:42:25;;;;;;;7.00;5.50;;;19.40;78.20;;;;;;5128195;28;20410;-71
2022/09/06 03:44:52;;;;;;;6.18;5.22;;;19.40;78.40;;;;;;5127612;28;20486;-71
2022/09/06 03:47:18;;;;;;;8.05;5.07;;;19.40;79.20;;;;;;5127810;28;20420;-71
2022/09/06 03:49:44;;;;;;;9.23;5.63;;;19.40;78.60;;;;;;5128317;28;20401;-72
2022/09/06 03:52:10;;;;;;;7.15;4.93;;;19.30;78.70;;;;;;5126120;28;20399;-72
2022/09/06 03:54:35;;;;;;;7.67;5.20;;;19.30;78.70;;;;;;5115186;27;20423;-71
2022/09/06 03:57:01;;;;;;;6.72;5.10;;;19.30;78.70;;;;;;5121759;28;20823;-71
2022/09/06 03:59:27;;;;;;;6.77;5.13;;;19.30;78.90;;;;;;5111069;27;21100;-71
2022/09/06 04:01:52;;;;;;;7.20;5.23;;;19.30;79.00;;;;;;5125495;27;20461;-71
2022/09/06 04:04:18;;;;;;;6.63;4.70;;;19.30;79.40;;;;;;5124578;27;20402;-71
2022/09/06 04:06:44;;;;;;;6.80;5.17;;;19.20;78.60;;;;;;5132344;27;20398;-71
2022/09/06 04:09:09;;;;;;;6.80;5.20;;;19.30;79.20;;;;;;5112347;27;20757;-71
2022/09/06 04:11:35;;;;;;;5.95;4.82;;;19.30;79.20;;;;;;5123679;27;21031;-71
2022/09/06 04:14:00;;;;;;;6.40;5.00;;;19.30;79.10;;;;;;5111556;27;20509;-71
2022/09/06 04:16:26;;;;;;;5.80;4.80;;;19.20;79.30;;;;;;5123672;27;20427;-71
2022/09/06 04:18:51;;;;;;;8.38;5.15;;;19.20;79.50;;;;;;5125455;27;20397;-71
2022/09/06 04:21:17;;;;;;;7.97;5.00;;;19.20;79.70;;;;;;5111627;28;20416;-71
2022/09/06 04:23:43;;;;;;;5.30;4.73;;;19.20;79.60;;;;;;5111719;28;20396;-71
2022/09/06 04:26:08;;;;;;;6.10;4.90;;;19.20;79.80;;;;;;5123582;27;20946;-71
2022/09/06 04:28:34;;;;;;;9.37;5.27;;;19.20;80.00;;;;;;5131343;27;20455;-71
2022/09/06 04:31:02;;;;;;;7.25;5.10;;;19.20;80.10;;;;;;5131534;27;20787;-71
2022/09/06 04:33:29;;;;;;;8.65;5.50;;;19.10;79.90;;;;;;5130901;27;20406;-71
2022/09/06 04:35:57;;;;;;;6.68;5.10;;;19.10;80.10;;;;;;5131160;27;20463;-71
2022/09/06 04:38:23;;;;;;;6.25;5.30;;;19.10;80.30;;;;;;5131314;27;20444;-71
2022/09/06 04:40:49;;;;;;;8.43;5.45;;;19.10;80.30;;;;;;5131214;27;20398;-71
2022/09/06 04:43:15;;;;;;;9.70;5.80;;;19.10;80.90;;;;;;5130741;27;20407;-71
2022/09/06 04:45:41;;;;;;;7.05;5.40;;;19.10;80.40;;;;;;5118927;27;20487;-71
2022/09/06 04:48:07;;;;;;;6.47;5.30;;;19.10;81.00;;;;;;5124196;27;20762;-71
2022/09/06 04:50:32;;;;;;;9.60;5.70;;;19.10;80.70;;;;;;5110820;28;20396;-71
2022/09/06 04:52:58;;;;;;;6.35;5.10;;;19.10;81.20;;;;;;5116015;27;20395;-71
2022/09/06 04:55:25;;;;;;;6.87;5.70;;;19.10;81.40;;;;;;5119161;27;20423;-71
2022/09/06 04:57:51;;;;;;;7.13;5.18;;;19.10;81.10;;;;;;5124005;27;20400;-71
2022/09/06 05:00:17;;;;;;;6.67;5.40;;;19.10;81.60;;;;;;5123037;27;20406;-71
2022/09/06 05:02:43;;;;;;;8.43;5.50;;;19.00;81.30;;;;;;5117471;27;20402;-71
2022/09/06 05:05:09;;;;;;;8.17;5.70;;;19.00;81.40;;;;;;5130217;27;20434;-71
2022/09/06 05:07:35;;;;;;;8.30;5.68;;;19.10;82.00;;;;;;5109986;27;20423;-71
2022/09/06 05:10:01;;;;;;;8.73;5.72;;;19.00;81.50;;;;;;5122034;27;20400;-71
2022/09/06 05:12:26;;;;;;;8.18;5.78;;;19.10;81.80;;;;;;5112076;27;20399;-72
2022/09/06 05:14:52;;;;;;;8.30;5.80;;;19.10;81.80;;;;;;5110848;27;20393;-71
2022/09/06 05:17:17;;;;;;;7.80;5.65;;;19.10;81.70;;;;;;5129520;27;20430;-72
2022/09/06 05:19:43;;;;;;;7.85;5.20;;;19.10;82.50;;;;;;5130343;27;20753;-70
2022/09/06 05:22:10;;;;;;;7.23;5.47;;;19.10;82.70;;;;;;5129313;27;20430;-71
2022/09/06 05:24:36;;;;;;;8.55;6.00;;;19.10;81.80;;;;;;5117429;27;20910;-71
2022/09/06 05:27:03;;;;;;;7.57;5.70;;;19.10;82.10;;;;;;5128556;27;20441;-71
2022/09/06 05:29:29;;;;;;;7.22;5.30;;;19.10;82.00;;;;;;5108889;27;20633;-71
2022/09/06 05:31:56;;;;;;;8.23;5.90;;;19.10;82.60;;;;;;5110182;27;20481;-71
2022/09/06 05:34:22;;;;;;;6.93;6.22;;;19.10;83.10;;;;;;5122530;27;20395;-71
2022/09/06 05:36:47;;;;;;;9.83;6.77;;;19.10;83.80;;;;;;5128574;27;20454;-71
2022/09/06 05:39:13;;;;;;;7.85;6.60;;;19.00;84.90;;;;;;5129833;27;20398;-70
2022/09/06 05:41:38;;;;;;;8.30;6.63;;;19.00;84.10;;;;;;5116455;27;20397;-71
2022/09/06 05:44:04;;;;;;;8.70;6.60;;;18.90;85.00;;;;;;5129598;27;20410;-71
2022/09/06 05:46:30;;;;;;;8.82;6.72;;;18.90;84.90;;;;;;5129673;27;20980;-71
2022/09/06 05:48:59;;;;;;;8.83;6.80;;;18.90;85.20;;;;;;5130026;27;20399;-70
2022/09/06 05:51:26;;;;;;;9.32;6.80;;;18.90;85.60;;;;;;5110548;27;20424;-71
2022/09/06 05:53:51;;;;;;;8.02;7.03;;;18.90;85.90;;;;;;5122695;27;20477;-71
2022/09/06 05:56:17;;;;;;;8.47;7.00;;;18.90;86.30;;;;;;5116239;27;20486;-71
2022/09/06 05:58:44;;;;;;;9.00;6.25;;;18.90;86.40;;;;;;5098619;28;20401;-71
2022/09/06 06:01:17;;;;;;;7.93;6.70;;;18.80;86.10;;;;;;5128622;27;20394;-71
2022/09/06 06:03:53;;;;;;;8.55;7.13;;;18.80;86.10;;;;;;5129183;27;20442;-71
2022/09/06 06:06:20;;;;;;;10.05;7.30;;;18.90;86.70;;;;;;5118486;27;20781;-71
2022/09/06 06:08:46;;;;;;;9.38;6.88;;;18.90;86.40;;;;;;5129028;27;20403;-71
2022/09/06 06:11:13;;;;;;;10.68;7.13;;;18.90;87.10;;;;;;5129471;27;20407;-71
2022/09/06 06:13:39;;;;;;;11.77;7.45;;;19.00;86.80;;;;;;5098464;27;20436;-72
2022/09/06 06:16:06;;;;;;;8.38;6.97;;;19.10;86.90;;;;;;5129405;27;20402;-71
2022/09/06 06:18:32;;;;;;;8.50;6.60;;;19.00;86.70;;;;;;5116093;27;20440;-72
2022/09/06 06:21:12;;;;;;;7.63;6.80;;;19.00;86.80;;;;;;5129813;27;20774;-71
2022/09/06 06:23:38;;;;;;;10.50;7.05;;;18.90;87.00;;;;;;5124489;27;20928;-71
2022/09/06 06:26:05;;;;;;;8.63;6.80;;;18.90;87.00;;;;;;5120819;27;20458;-71
2022/09/06 06:28:31;;;;;;;8.27;7.17;;;18.90;87.40;;;;;;5125283;27;20410;-72
2022/09/06 06:30:56;;;;;;;9.48;7.20;;;18.90;87.90;;;;;;5121368;27;20401;-72
2022/09/06 06:33:22;;;;;;;8.87;7.50;;;18.80;88.20;;;;;;5126577;27;20392;-71
2022/09/06 06:35:57;;;;;;;9.65;7.13;;;18.80;88.90;;;;;;5118822;28;20413;-70
2022/09/06 06:38:23;;;;;;;9.82;7.88;;;18.70;89.20;;;;;;5142016;27;20416;-72
2022/09/06 06:40:49;;;;;;;9.47;7.80;;;18.70;89.00;;;;;;5147571;27;20427;-71
2022/09/06 06:43:14;;;;;;;8.85;7.55;;;18.70;89.40;;;;;;5148004;27;20406;-71
2022/09/06 06:45:40;;;;;;;9.45;7.90;;;18.70;89.40;;;;;;5148905;27;20452;-71
2022/09/06 06:48:06;;;;;;;10.27;7.93;;;18.70;89.70;;;;;;5148293;27;20387;-71
2022/09/06 06:50:31;;;;;;;9.07;8.17;;;18.70;89.90;;;;;;5139239;27;20405;-71
2022/09/06 06:52:57;;;;;;;13.93;8.20;;;18.70;90.00;;;;;;5129823;27;20749;-72
2022/09/06 06:55:23;;;;;;;9.13;7.82;;;18.80;90.20;;;;;;5130133;27;20394;-71
2022/09/06 06:57:49;;;;;;;10.53;7.90;;;18.90;90.30;;;;;;5129091;27;20394;-71
2022/09/06 07:00:15;;;;;;;10.32;8.32;;;18.90;90.10;;;;;;5129287;27;20402;-71
2022/09/06 07:02:40;;;;;;;11.43;7.85;;;19.00;90.60;;;;;;5128550;27;20471;-71
2022/09/06 07:05:06;;;;;;;9.05;7.85;;;19.10;90.20;;;;;;5129011;28;20425;-71
2022/09/06 07:07:32;;;;;;;9.80;7.35;;;19.10;90.40;;;;;;5120444;28;20442;-71
2022/09/06 07:09:57;;;;;;;9.50;7.50;;;19.20;90.50;;;;;;5120538;28;20473;-71
2022/09/06 07:12:23;;;;;;;9.13;7.47;;;19.20;90.20;;;;;;5123711;28;20394;-72
2022/09/06 07:14:48;;;;;;;8.43;7.53;;;19.20;90.20;;;;;;5128181;27;20391;-72
2022/09/06 07:17:14;;;;;;;9.27;8.07;;;19.30;90.00;;;;;;5127579;28;20391;-72
2022/09/06 07:19:40;;;;;;;14.90;9.77;;;19.30;90.00;;;;;;5129238;28;20891;-71
2022/09/06 07:22:05;;;;;;;17.75;12.18;;;19.30;90.00;;;;;;5127838;28;20483;-72
2022/09/06 07:24:31;;;;;;;24.00;12.37;;;19.30;89.90;;;;;;5127482;28;20391;-71
2022/09/06 07:26:56;;;;;;;16.23;11.50;;;19.30;89.90;;;;;;5144227;28;20393;-71
2022/09/06 07:29:24;;;;;;;16.40;11.25;;;19.40;89.80;;;;;;5147797;28;20395;-71
2022/09/06 07:31:51;;;;;;;12.93;10.70;;;19.40;90.10;;;;;;5146902;28;20420;-71
2022/09/06 07:34:18;;;;;;;13.02;10.15;;;19.40;90.00;;;;;;5149886;27;20439;-71
2022/09/06 07:36:43;;;;;;;13.15;10.63;;;19.50;90.00;;;;;;5151824;27;20401;-71
2022/09/06 07:39:09;;;;;;;11.77;9.77;;;19.50;89.90;;;;;;5152738;27;20386;-71
2022/09/06 07:41:34;;;;;;;11.13;9.23;;;19.50;89.70;;;;;;5143292;27;20399;-71
2022/09/06 07:44:00;;;;;;;11.60;9.63;;;19.50;90.00;;;;;;5127679;27;20481;-71
2022/09/06 07:46:26;;;;;;;11.75;9.65;;;19.50;90.00;;;;;;5130259;27;20771;-72
2022/09/06 07:48:51;;;;;;;11.00;8.80;;;19.50;90.10;;;;;;5131230;27;20480;-72
2022/09/06 07:51:21;;;;;;;9.53;8.50;;;19.50;90.20;;;;;;5130796;27;20483;-71
2022/09/06 07:53:51;;;;;;;12.03;9.83;;;19.60;90.10;;;;;;5132907;27;20395;-71
2022/09/06 07:56:19;;;;;;;12.73;8.75;;;19.70;90.20;;;;;;5132148;27;20434;-71
2022/09/06 07:58:45;;;;;;;10.30;8.68;;;19.80;90.20;;;;;;5132501;27;20395;-73
2022/09/06 08:01:34;;;;;;;10.52;8.18;;;19.80;90.00;;;;;;5132602;27;20393;-71
2022/09/06 08:04:09;;;;;;;11.55;8.60;;;20.00;90.20;;;;;;5132283;27;20451;-71
2022/09/06 08:06:38;;;;;;;10.40;8.88;;;20.00;89.90;;;;;;5132213;27;20418;-71
2022/09/06 08:09:07;;;;;;;10.38;8.55;;;20.10;89.80;;;;;;5131495;27;20401;-72
2022/09/06 08:11:33;;;;;;;9.95;8.35;;;20.20;89.90;;;;;;5132500;27;20888;-71
2022/09/06 08:14:01;;;;;;;22.83;9.82;;;20.30;89.60;;;;;;5131140;27;20402;-71
2022/09/06 08:16:28;;;;;;;10.33;8.10;;;20.50;89.70;;;;;;5131485;27;20403;-71
2022/09/06 08:18:56;;;;;;;17.53;9.33;;;20.60;89.50;;;;;;5132902;27;20390;-71
2022/09/06 08:21:23;;;;;;;13.18;8.27;;;20.60;88.60;;;;;;5135912;27;20399;-71
2022/09/06 08:23:51;;;;;;;9.07;8.13;;;20.60;88.80;;;;;;5117145;27;20494;-71
2022/09/06 08:26:22;;;;;;;11.60;9.05;;;20.70;88.40;;;;;;5131021;27;20814;-71
2022/09/06 08:29:01;;;;;;;10.55;9.20;;;20.70;88.00;;;;;;5119308;27;20409;-72
2022/09/06 08:31:29;;;;;;;10.98;9.63;;;20.70;88.00;;;;;;5131595;27;20403;-72
2022/09/06 08:33:56;;;;;;;13.27;11.50;;;20.70;87.50;;;;;;5131660;27;20827;-71
2022/09/06 08:36:22;;;;;;;13.30;10.35;;;20.60;87.20;;;;;;5129856;27;20412;-71
2022/09/06 08:38:47;;;;;;;10.90;9.77;;;20.50;87.30;;;;;;5130690;27;20399;-72
2022/09/06 08:41:13;;;;;;;11.00;9.37;;;20.50;88.00;;;;;;5130536;27;20864;-71
2022/09/06 08:43:56;;;;;;;10.13;8.70;;;20.50;87.70;;;;;;5130541;27;20402;-71
2022/09/06 08:47:08;;;;;;;9.73;8.10;;;20.70;88.20;;;;;;5128883;27;20425;-71
2022/09/06 08:49:46;;;;;;;11.47;8.03;;;20.80;88.00;;;;;;5122013;27;20414;-72
2022/09/06 08:52:31;;;;;;;10.90;8.70;;;21.00;87.70;;;;;;5131338;27;20425;-71
2022/09/06 08:55:17;;;;;;;12.20;8.95;;;21.10;87.20;;;;;;5119513;27;20482;-71
2022/09/06 08:58:20;;;;;;;9.98;8.07;;;21.10;86.40;;;;;;5130426;27;20437;-71
2022/09/06 09:01:06;;;;;;;12.15;8.05;;;21.10;86.40;;;;;;5131004;27;20411;-71
2022/09/06 09:03:38;;;;;;;8.77;7.65;;;21.00;86.20;;;;;;5131201;27;20527;-71
2022/09/06 09:06:06;;;;;;;9.82;7.82;;;20.90;86.40;;;;;;5110154;28;20561;-71
2022/09/06 09:08:43;;;;;;;8.32;7.45;;;20.90;86.40;;;;;;5123270;27;20399;-71
2022/09/06 09:11:15;;;;;;;9.18;7.50;;;21.00;87.20;;;;;;5120852;27;20432;-71
2022/09/06 09:13:51;;;;;;;9.45;7.32;;;21.10;86.90;;;;;;5104901;27;20481;-71
2022/09/06 09:16:18;;;;;;;9.13;7.38;;;21.20;86.70;;;;;;5121299;27;20417;-71
2022/09/06 09:18:51;;;;;;;11.63;7.38;;;21.40;87.20;;;;;;5111947;27;20396;-71
2022/09/06 09:21:20;;;;;;;10.73;7.93;;;22.00;86.90;;;;;;5122563;27;20455;-72
2022/09/06 09:23:53;;;;;;;9.75;7.47;;;22.80;84.00;;;;;;5130121;27;20550;-72
2022/09/06 09:26:21;;;;;;;9.55;7.43;;;23.30;82.40;;;;;;5116600;27;20834;-71
2022/09/06 09:29:22;;;;;;;9.25;7.13;;;23.80;79.80;;;;;;5110103;28;20400;-72
2022/09/06 09:31:51;;;;;;;11.18;6.85;;;24.20;78.60;;;;;;5025948;28;20946;-71
2022/09/06 09:34:32;;;;;;;8.82;6.60;;;24.60;78.00;;;;;;5090120;27;20418;-72
2022/09/06 09:37:19;;;;;;;9.35;6.40;;;25.00;77.70;;;;;;5118113;27;20442;-71
2022/09/06 09:39:46;;;;;;;7.90;6.43;;;25.40;76.50;;;;;;5129961;27;20406;-70
2022/09/06 09:42:23;;;;;;;7.65;6.30;;;25.60;75.20;;;;;;5119863;27;20816;-70
2022/09/06 09:44:49;;;;;;;6.97;6.07;;;25.80;75.10;;;;;;5127180;27;20448;-70
2022/09/06 09:47:25;;;;;;;8.25;6.50;;;26.10;74.50;;;;;;5129368;27;20399;-69
2022/09/06 09:49:50;;;;;;;10.20;6.60;;;26.30;73.90;;;;;;5129771;27;20395;-70
2022/09/06 09:52:28;;;;;;;6.63;5.90;;;26.30;73.30;;;;;;5130252;27;20403;-70
2022/09/06 09:54:57;;;;;;;9.05;6.45;;;26.50;72.50;;;;;;5102062;27;20406;-70
2022/09/06 09:57:22;;;;;;;7.05;5.97;;;26.60;72.30;;;;;;5126650;27;20776;-70
2022/09/06 09:59:57;;;;;;;9.68;5.68;;;26.70;72.20;;;;;;5129116;27;20395;-70
2022/09/06 10:02:27;;;;;;;9.18;5.57;;;26.90;70.20;;;;;;5124904;27;20833;-70
2022/09/06 10:05:03;;;;;;;6.72;5.85;;;27.00;70.30;;;;;;5129309;27;20511;-70
2022/09/06 10:07:31;;;;;;;8.00;6.15;;;26.90;68.60;;;;;;5119379;27;20519;-70
2022/09/06 10:10:11;;;;;;;8.82;5.95;;;26.90;68.00;;;;;;5109097;27;20894;-70
2022/09/06 10:12:39;;;;;;;10.07;5.90;;;26.90;69.10;;;;;;5109221;28;20446;-70
2022/09/06 10:15:07;;;;;;;6.60;5.27;;;27.10;69.00;;;;;;5128987;27;21033;-70
2022/09/06 10:17:34;;;;;;;8.25;5.88;;;27.30;68.10;;;;;;5111279;27;20425;-70
2022/09/06 10:20:03;;;;;;;6.50;4.97;;;27.40;67.40;;;;;;5125958;27;20777;-71
2022/09/06 10:22:39;;;;;;;5.80;5.20;;;27.50;66.60;;;;;;5090727;28;20408;-71
2022/09/06 10:25:48;;;;;;;7.05;5.07;;;27.80;67.10;;;;;;5108358;27;20420;-70
2022/09/06 10:28:20;;;;;;;7.20;5.17;;;27.80;65.10;;;;;;4995224;28;20419;-70
2022/09/06 10:31:16;;;;;;;7.10;5.38;;;27.90;65.40;;;;;;5014213;28;20413;-70
2022/09/06 10:34:03;;;;;;;5.63;4.93;;;27.90;64.80;;;;;;5071425;28;20507;-71
2022/09/06 10:36:43;;;;;;;8.27;5.70;;;28.00;65.20;;;;;;5108920;28;20412;-71
2022/09/06 10:39:17;;;;;;;6.90;5.60;;;28.10;64.50;;;;;;5108963;28;20392;-70
2022/09/06 10:41:59;;;;;;;7.13;5.40;;;28.10;64.20;;;;;;5092017;27;20457;-70
2022/09/06 10:44:44;;;;;;;7.45;5.30;;;28.20;63.40;;;;;;5118961;27;20397;-70
2022/09/06 10:47:12;;;;;;;8.63;5.50;;;28.40;62.80;;;;;;5109027;28;20388;-70
2022/09/06 10:49:42;;;;;;;7.50;4.78;;;28.50;63.90;;;;;;5109108;28;20404;-70
2022/09/06 10:52:14;;;;;;;6.75;5.10;;;28.50;64.00;;;;;;5115604;27;20391;-70
2022/09/06 10:54:40;;;;;;;6.63;5.07;;;28.60;62.80;;;;;;5129045;27;20403;-70
2022/09/06 10:57:35;;;;;;;9.07;6.00;;;28.70;64.00;;;;;;5128951;27;20402;-70
2022/09/06 11:00:13;;;;;;;7.00;5.53;;;28.80;62.30;;;;;;5128941;27;20474;-70
2022/09/06 11:02:54;;;;;;;6.72;4.95;;;29.10;63.10;;;;;;5128579;27;21285;-70
2022/09/06 11:05:31;;;;;;;6.60;4.93;;;29.30;62.10;;;;;;5128090;27;20505;-70
2022/09/06 11:08:03;;;;;;;6.78;4.97;;;29.50;62.70;;;;;;5111665;28;20948;-70
2022/09/06 11:10:44;;;;;;;6.50;5.10;;;29.40;61.60;;;;;;5119236;28;20402;-71
2022/09/06 11:13:17;;;;;;;8.67;5.27;;;29.60;61.80;;;;;;5128813;27;20483;-70
2022/09/06 11:16:19;;;;;;;7.97;5.20;;;29.60;61.30;;;;;;5128938;27;20544;-70
2022/09/06 11:18:50;;;;;;;7.00;5.70;;;29.70;61.80;;;;;;5128741;28;20414;-70
2022/09/06 11:21:37;;;;;;;6.15;5.00;;;29.80;60.00;;;;;;5128246;28;20882;-71
2022/09/06 11:24:26;;;;;;;6.88;5.13;;;29.80;60.80;;;;;;5127848;28;20414;-70
2022/09/06 11:27:03;;;;;;;;;;;30.00;61.00;;;;;;5130295;27;20126;-70
2022/09/06 11:29:29;;;;;;;;;;;30.00;60.90;;;;;;5102321;28;20274;-70
2022/09/06 11:31:56;;;;;;;;;;;30.30;60.00;;;;;;5130003;27;20024;-70
2022/09/06 11:34:26;;;;;;;;;;;30.50;59.70;;;;;;5117420;28;19923;-70
2022/09/06 11:36:55;;;;;;;7.60;5.15;;;30.60;59.80;;;;;;5128830;27;20654;-70
2022/09/06 11:39:43;;;;;;;6.75;5.38;;;30.60;59.50;;;;;;5128378;27;20413;-70
2022/09/06 11:42:44;;;;;;;7.05;4.75;;;30.70;59.20;;;;;;5127859;27;20402;-70
2022/09/06 11:45:10;;;;;;;6.45;4.40;;;30.80;59.20;;;;;;5125755;27;20518;-70
2022/09/06 11:47:36;;;;;;;9.02;4.97;;;30.90;58.20;;;;;;5117790;28;20412;-70
2022/09/06 11:50:19;;;;;;;7.30;4.80;;;31.00;58.50;;;;;;5114439;28;20471;-70
2022/09/06 11:53:05;;;;;;;8.80;5.77;;;31.10;58.70;;;;;;5128421;28;20477;-70
2022/09/06 11:56:08;;;;;;;8.27;4.80;;;31.10;58.10;;;;;;5128381;28;20442;-70
2022/09/06 11:58:40;;;;;;;9.23;4.70;;;31.20;58.50;;;;;;5072143;27;20494;-69
2022/09/06 12:01:12;;;;;;;;;;;31.30;58.40;;;;;;5129856;27;20054;-70
2022/09/06 12:03:46;;;;;;;8.48;5.25;;;31.40;58.20;;;;;;5129514;28;19927;-70
2022/09/06 12:06:15;;;;;;;8.95;4.85;;;31.50;57.40;;;;;;5127873;28;20985;-70
2022/09/06 12:08:41;;;;;;;6.32;5.15;;;31.60;59.10;;;;;;5127762;28;20764;-70
2022/09/06 12:11:41;;;;;;;6.78;4.70;;;31.80;57.70;;;;;;5127871;28;20391;-70
2022/09/06 12:14:28;;;;;;;7.22;4.85;;;31.70;56.80;;;;;;5126124;27;20399;-70
2022/09/06 12:16:59;;;;;;;9.95;4.90;;;31.60;56.70;;;;;;5107127;28;20404;-71
2022/09/06 12:19:47;;;;;;;7.45;4.88;;;31.50;56.30;;;;;;5124515;27;20889;-71
2022/09/06 12:22:28;;;;;;;8.00;5.03;;;31.60;57.80;;;;;;5130526;27;20531;-70
2022/09/06 12:24:59;;;;;;;6.07;4.55;;;31.60;56.40;;;;;;5092158;28;20419;-71
2022/09/06 12:27:43;;;;;;;7.40;4.70;;;31.50;57.10;;;;;;5114140;27;21087;-71
2022/09/06 12:30:11;;;;;;;9.05;4.50;;;31.50;57.10;;;;;;5113492;27;20403;-70
2022/09/06 12:32:47;;;;;;;6.63;4.57;;;31.70;57.30;;;;;;5126072;27;20397;-71
2022/09/06 12:35:18;;;;;;;5.85;4.40;;;32.00;57.20;;;;;;5112443;27;20405;-72
2022/09/06 12:37:57;;;;;;;7.17;4.60;;;32.20;57.00;;;;;;5131016;27;20403;-71
2022/09/06 12:40:26;;;;;;;7.40;4.82;;;32.30;55.90;;;;;;5130598;27;20409;-71
2022/09/06 12:42:55;;;;;;;6.72;4.90;;;32.50;55.80;;;;;;5130929;27;20445;-72
2022/09/06 12:45:22;;;;;;;7.63;4.20;;;32.60;55.50;;;;;;5126805;27;20516;-70
2022/09/06 12:47:48;;;;;;;6.47;4.45;;;32.60;55.70;;;;;;5110850;28;20407;-71
2022/09/06 12:50:18;;;;;;;6.07;4.00;;;32.80;55.70;;;;;;5124687;27;20392;-71
2022/09/06 12:52:44;;;;;;;7.05;4.35;;;33.20;56.40;;;;;;5122313;27;20403;-71
2022/09/06 12:55:26;;;;;;;6.28;4.43;;;33.50;55.50;;;;;;5130775;27;20471;-71
2022/09/06 12:57:54;;;;;;;6.18;4.60;;;33.70;54.80;;;;;;5118174;27;20083;-71
2022/09/06 13:00:22;;;;;;;6.10;3.90;;;33.70;54.50;;;;;;5124500;27;20036;-70
2022/09/06 13:03:17;;;;;;;9.38;3.97;;;33.80;55.10;;;;;;5124497;27;20148;-70
2022/09/06 13:05:44;;;;;;;6.80;4.35;;;33.80;54.80;;;;;;5122061;27;20423;-71
2022/09/06 13:08:19;;;;;;;6.07;4.07;;;33.90;54.20;;;;;;5130696;27;20476;-71